sensor_id;sensor_type;location;lat;lon;timestamp;P1;durP1;ratioP1;P2;durP2;ratioP2
55003;SDS011;40900;52.710;6.438;2022-12-10T00:01:42;71.30;;;37.95;;
55003;SDS011;40900;52.710;6.438;2022-12-10T00:04:08;71.85;;;37.45;;
55003;SDS011;40900;52.710;6.438;2022-12-10T00:06:35;65.32;;;36.42;;
55003;SDS011;40900;52.710;6.438;2022-12-10T00:09:03;74.53;;;38.30;;
55003;SDS011;40900;52.710;6.438;2022-12-10T00:11:30;69.63;;;37.83;;
55003;SDS011;40900;52.710;6.438;2022-12-10T00:13:56;67.88;;;36.88;;
55003;SDS011;40900;52.710;6.438;2022-12-10T00:16:23;66.72;;;36.35;;
55003;SDS011;40900;52.710;6.438;2022-12-10T00:18:51;70.20;;;38.45;;
55003;SDS011;40900;52.710;6.438;2022-12-10T00:21:18;72.40;;;37.92;;
55003;SDS011;40900;52.710;6.438;2022-12-10T00:23:46;71.50;;;38.25;;
55003;SDS011;40900;52.710;6.438;2022-12-10T00:26:46;71.32;;;37.65;;
55003;SDS011;40900;52.710;6.438;2022-12-10T00:29:05;69.65;;;37.10;;
55003;SDS011;40900;52.710;6.438;2022-12-10T00:31:35;72.90;;;37.88;;
55003;SDS011;40900;52.710;6.438;2022-12-10T00:34:02;75.47;;;39.55;;
55003;SDS011;40900;52.710;6.438;2022-12-10T00:36:35;72.18;;;38.10;;
55003;SDS011;40900;52.710;6.438;2022-12-10T00:39:07;78.22;;;39.88;;
55003;SDS011;40900;52.710;6.438;2022-12-10T00:41:33;72.68;;;38.55;;
55003;SDS011;40900;52.710;6.438;2022-12-10T00:43:59;75.78;;;38.88;;
55003;SDS011;40900;52.710;6.438;2022-12-10T00:46:25;74.40;;;38.80;;
55003;SDS011;40900;52.710;6.438;2022-12-10T00:48:51;72.72;;;39.40;;
55003;SDS011;40900;52.710;6.438;2022-12-10T00:51:18;73.10;;;38.10;;
55003;SDS011;40900;52.710;6.438;2022-12-10T00:53:46;77.05;;;39.75;;
55003;SDS011;40900;52.710;6.438;2022-12-10T00:56:13;77.40;;;41.30;;
55003;SDS011;40900;52.710;6.438;2022-12-10T00:58:41;71.05;;;38.17;;
55003;SDS011;40900;52.710;6.438;2022-12-10T01:01:07;77.63;;;41.15;;
55003;SDS011;40900;52.710;6.438;2022-12-10T01:03:36;79.60;;;40.70;;
55003;SDS011;40900;52.710;6.438;2022-12-10T01:06:10;76.93;;;39.92;;
55003;SDS011;40900;52.710;6.438;2022-12-10T01:08:38;79.55;;;39.90;;
55003;SDS011;40900;52.710;6.438;2022-12-10T01:11:04;70.57;;;38.75;;
55003;SDS011;40900;52.710;6.438;2022-12-10T01:13:30;77.60;;;40.33;;
55003;SDS011;40900;52.710;6.438;2022-12-10T01:15:56;74.80;;;38.72;;
55003;SDS011;40900;52.710;6.438;2022-12-10T01:18:22;82.45;;;41.10;;
55003;SDS011;40900;52.710;6.438;2022-12-10T01:20:47;79.22;;;39.40;;
55003;SDS011;40900;52.710;6.438;2022-12-10T01:23:13;73.78;;;39.33;;
55003;SDS011;40900;52.710;6.438;2022-12-10T01:25:39;80.63;;;42.33;;
55003;SDS011;40900;52.710;6.438;2022-12-10T01:28:04;83.05;;;40.95;;
55003;SDS011;40900;52.710;6.438;2022-12-10T01:30:30;73.90;;;39.63;;
55003;SDS011;40900;52.710;6.438;2022-12-10T01:32:57;78.07;;;41.85;;
55003;SDS011;40900;52.710;6.438;2022-12-10T01:35:23;78.82;;;40.15;;
55003;SDS011;40900;52.710;6.438;2022-12-10T01:37:49;84.72;;;40.90;;
55003;SDS011;40900;52.710;6.438;2022-12-10T01:40:14;77.40;;;41.13;;
55003;SDS011;40900;52.710;6.438;2022-12-10T01:42:40;84.35;;;41.67;;
55003;SDS011;40900;52.710;6.438;2022-12-10T01:45:08;77.18;;;41.42;;
55003;SDS011;40900;52.710;6.438;2022-12-10T01:47:35;75.35;;;38.38;;
55003;SDS011;40900;52.710;6.438;2022-12-10T01:50:02;76.22;;;40.83;;
55003;SDS011;40900;52.710;6.438;2022-12-10T01:52:29;72.47;;;39.65;;
55003;SDS011;40900;52.710;6.438;2022-12-10T01:54:55;80.15;;;40.58;;
55003;SDS011;40900;52.710;6.438;2022-12-10T01:57:25;73.93;;;40.75;;
55003;SDS011;40900;52.710;6.438;2022-12-10T01:59:53;79.00;;;40.97;;
55003;SDS011;40900;52.710;6.438;2022-12-10T02:05:21;79.10;;;42.40;;
55003;SDS011;40900;52.710;6.438;2022-12-10T02:10:34;72.93;;;39.30;;
55003;SDS011;40900;52.710;6.438;2022-12-10T02:13:12;68.22;;;38.17;;
55003;SDS011;40900;52.710;6.438;2022-12-10T02:15:52;76.32;;;40.20;;
55003;SDS011;40900;52.710;6.438;2022-12-10T02:18:28;78.57;;;40.25;;
55003;SDS011;40900;52.710;6.438;2022-12-10T02:21:02;79.22;;;40.47;;
55003;SDS011;40900;52.710;6.438;2022-12-10T02:23:35;80.43;;;42.08;;
55003;SDS011;40900;52.710;6.438;2022-12-10T02:28:51;75.80;;;40.15;;
55003;SDS011;40900;52.710;6.438;2022-12-10T02:31:37;83.72;;;41.28;;
55003;SDS011;40900;52.710;6.438;2022-12-10T02:34:07;83.20;;;41.50;;
55003;SDS011;40900;52.710;6.438;2022-12-10T02:36:34;83.40;;;42.63;;
55003;SDS011;40900;52.710;6.438;2022-12-10T02:39:04;85.32;;;42.83;;
55003;SDS011;40900;52.710;6.438;2022-12-10T02:41:34;75.97;;;40.30;;
55003;SDS011;40900;52.710;6.438;2022-12-10T02:44:11;80.93;;;40.83;;
55003;SDS011;40900;52.710;6.438;2022-12-10T02:46:39;78.30;;;40.03;;
55003;SDS011;40900;52.710;6.438;2022-12-10T02:49:07;79.85;;;42.20;;
55003;SDS011;40900;52.710;6.438;2022-12-10T02:51:33;87.05;;;41.80;;
55003;SDS011;40900;52.710;6.438;2022-12-10T02:54:00;86.03;;;40.83;;
55003;SDS011;40900;52.710;6.438;2022-12-10T02:56:33;78.88;;;41.42;;
55003;SDS011;40900;52.710;6.438;2022-12-10T03:07:47;80.75;;;42.15;;
55003;SDS011;40900;52.710;6.438;2022-12-10T03:13:03;85.25;;;42.95;;
55003;SDS011;40900;52.710;6.438;2022-12-10T03:15:33;80.32;;;42.00;;
55003;SDS011;40900;52.710;6.438;2022-12-10T03:18:02;87.20;;;41.55;;
55003;SDS011;40900;52.710;6.438;2022-12-10T03:20:34;87.43;;;43.75;;
55003;SDS011;40900;52.710;6.438;2022-12-10T03:23:08;92.93;;;44.58;;
55003;SDS011;40900;52.710;6.438;2022-12-10T03:25:37;90.65;;;43.88;;
55003;SDS011;40900;52.710;6.438;2022-12-10T03:28:03;83.43;;;42.28;;
55003;SDS011;40900;52.710;6.438;2022-12-10T03:30:33;85.55;;;43.22;;
55003;SDS011;40900;52.710;6.438;2022-12-10T03:33:01;75.97;;;40.00;;
55003;SDS011;40900;52.710;6.438;2022-12-10T03:35:28;80.75;;;41.42;;
55003;SDS011;40900;52.710;6.438;2022-12-10T03:37:54;83.80;;;41.88;;
55003;SDS011;40900;52.710;6.438;2022-12-10T03:40:22;80.70;;;40.25;;
55003;SDS011;40900;52.710;6.438;2022-12-10T03:42:50;76.90;;;41.88;;
55003;SDS011;40900;52.710;6.438;2022-12-10T03:45:16;78.90;;;40.97;;
55003;SDS011;40900;52.710;6.438;2022-12-10T03:47:42;80.10;;;42.00;;
55003;SDS011;40900;52.710;6.438;2022-12-10T03:50:08;79.25;;;41.20;;
55003;SDS011;40900;52.710;6.438;2022-12-10T03:52:34;78.68;;;41.13;;
55003;SDS011;40900;52.710;6.438;2022-12-10T03:55:00;76.03;;;40.15;;
55003;SDS011;40900;52.710;6.438;2022-12-10T03:57:25;75.18;;;40.58;;
55003;SDS011;40900;52.710;6.438;2022-12-10T03:59:51;85.43;;;44.15;;
55003;SDS011;40900;52.710;6.438;2022-12-10T04:02:17;80.63;;;39.83;;
55003;SDS011;40900;52.710;6.438;2022-12-10T04:04:43;82.82;;;42.30;;
55003;SDS011;40900;52.710;6.438;2022-12-10T04:07:09;81.60;;;41.13;;
55003;SDS011;40900;52.710;6.438;2022-12-10T04:09:35;80.85;;;41.17;;
55003;SDS011;40900;52.710;6.438;2022-12-10T04:12:00;79.15;;;39.10;;
55003;SDS011;40900;52.710;6.438;2022-12-10T04:14:26;80.60;;;42.05;;
55003;SDS011;40900;52.710;6.438;2022-12-10T04:17:11;77.63;;;40.10;;
55003;SDS011;40900;52.710;6.438;2022-12-10T04:19:37;78.53;;;40.63;;
55003;SDS011;40900;52.710;6.438;2022-12-10T04:22:03;77.63;;;38.22;;
55003;SDS011;40900;52.710;6.438;2022-12-10T04:24:47;90.95;;;41.28;;
55003;SDS011;40900;52.710;6.438;2022-12-10T04:27:35;82.15;;;42.05;;
55003;SDS011;40900;52.710;6.438;2022-12-10T04:30:03;74.30;;;39.75;;
55003;SDS011;40900;52.710;6.438;2022-12-10T04:32:31;80.05;;;43.67;;
55003;SDS011;40900;52.710;6.438;2022-12-10T04:34:57;85.22;;;40.88;;
55003;SDS011;40900;52.710;6.438;2022-12-10T04:37:23;87.10;;;42.08;;
55003;SDS011;40900;52.710;6.438;2022-12-10T04:39:50;80.47;;;40.20;;
55003;SDS011;40900;52.710;6.438;2022-12-10T04:42:16;75.88;;;38.58;;
55003;SDS011;40900;52.710;6.438;2022-12-10T04:44:43;79.50;;;41.42;;
55003;SDS011;40900;52.710;6.438;2022-12-10T04:47:09;84.53;;;42.60;;
55003;SDS011;40900;52.710;6.438;2022-12-10T04:49:35;82.85;;;41.42;;
55003;SDS011;40900;52.710;6.438;2022-12-10T04:52:02;84.63;;;42.30;;
55003;SDS011;40900;52.710;6.438;2022-12-10T04:54:28;87.10;;;43.08;;
55003;SDS011;40900;52.710;6.438;2022-12-10T04:56:54;84.05;;;41.58;;
55003;SDS011;40900;52.710;6.438;2022-12-10T04:59:20;80.32;;;42.38;;
55003;SDS011;40900;52.710;6.438;2022-12-10T05:01:46;84.38;;;40.85;;
55003;SDS011;40900;52.710;6.438;2022-12-10T05:04:13;73.72;;;40.38;;
55003;SDS011;40900;52.710;6.438;2022-12-10T05:06:40;87.15;;;43.60;;
55003;SDS011;40900;52.710;6.438;2022-12-10T05:09:07;79.85;;;42.58;;
55003;SDS011;40900;52.710;6.438;2022-12-10T05:11:33;81.30;;;41.38;;
55003;SDS011;40900;52.710;6.438;2022-12-10T05:13:59;85.00;;;41.30;;
55003;SDS011;40900;52.710;6.438;2022-12-10T05:16:26;82.10;;;42.90;;
55003;SDS011;40900;52.710;6.438;2022-12-10T05:18:54;88.85;;;43.53;;
55003;SDS011;40900;52.710;6.438;2022-12-10T05:21:21;76.20;;;41.35;;
55003;SDS011;40900;52.710;6.438;2022-12-10T05:23:48;78.45;;;41.35;;
55003;SDS011;40900;52.710;6.438;2022-12-10T05:26:20;85.05;;;42.45;;
55003;SDS011;40900;52.710;6.438;2022-12-10T05:28:48;80.85;;;40.88;;
55003;SDS011;40900;52.710;6.438;2022-12-10T05:31:19;80.13;;;41.58;;
55003;SDS011;40900;52.710;6.438;2022-12-10T05:33:50;87.20;;;43.55;;
55003;SDS011;40900;52.710;6.438;2022-12-10T05:36:17;85.40;;;40.70;;
55003;SDS011;40900;52.710;6.438;2022-12-10T05:38:44;90.50;;;43.80;;
55003;SDS011;40900;52.710;6.438;2022-12-10T05:43:40;89.72;;;43.00;;
55003;SDS011;40900;52.710;6.438;2022-12-10T05:46:10;87.97;;;42.10;;
55003;SDS011;40900;52.710;6.438;2022-12-10T05:48:38;88.13;;;40.45;;
55003;SDS011;40900;52.710;6.438;2022-12-10T05:51:04;86.63;;;42.95;;
55003;SDS011;40900;52.710;6.438;2022-12-10T05:53:31;83.93;;;42.67;;
55003;SDS011;40900;52.710;6.438;2022-12-10T05:56:00;89.40;;;40.83;;
55003;SDS011;40900;52.710;6.438;2022-12-10T05:58:30;84.50;;;41.88;;
55003;SDS011;40900;52.710;6.438;2022-12-10T06:00:57;85.10;;;41.03;;
55003;SDS011;40900;52.710;6.438;2022-12-10T06:03:23;78.40;;;42.03;;
55003;SDS011;40900;52.710;6.438;2022-12-10T06:05:49;81.63;;;42.35;;
55003;SDS011;40900;52.710;6.438;2022-12-10T06:08:15;82.38;;;41.63;;
55003;SDS011;40900;52.710;6.438;2022-12-10T06:10:41;82.65;;;41.58;;
55003;SDS011;40900;52.710;6.438;2022-12-10T06:13:06;83.85;;;42.45;;
55003;SDS011;40900;52.710;6.438;2022-12-10T06:15:32;84.40;;;43.00;;
55003;SDS011;40900;52.710;6.438;2022-12-10T06:17:58;86.43;;;43.25;;
55003;SDS011;40900;52.710;6.438;2022-12-10T06:20:24;81.45;;;41.30;;
55003;SDS011;40900;52.710;6.438;2022-12-10T06:22:51;77.90;;;40.45;;
55003;SDS011;40900;52.710;6.438;2022-12-10T06:25:17;81.68;;;42.65;;
55003;SDS011;40900;52.710;6.438;2022-12-10T06:27:43;84.88;;;41.97;;
55003;SDS011;40900;52.710;6.438;2022-12-10T06:30:09;86.50;;;42.20;;
55003;SDS011;40900;52.710;6.438;2022-12-10T06:32:36;85.95;;;42.28;;
55003;SDS011;40900;52.710;6.438;2022-12-10T06:35:02;89.43;;;41.08;;
55003;SDS011;40900;52.710;6.438;2022-12-10T06:37:28;80.47;;;39.33;;
55003;SDS011;40900;52.710;6.438;2022-12-10T06:39:54;79.75;;;40.67;;
55003;SDS011;40900;52.710;6.438;2022-12-10T06:42:20;75.97;;;38.90;;
55003;SDS011;40900;52.710;6.438;2022-12-10T06:44:46;95.88;;;43.17;;
55003;SDS011;40900;52.710;6.438;2022-12-10T06:47:12;83.20;;;41.00;;
55003;SDS011;40900;52.710;6.438;2022-12-10T06:49:38;88.65;;;42.50;;
55003;SDS011;40900;52.710;6.438;2022-12-10T06:52:04;89.38;;;42.88;;
55003;SDS011;40900;52.710;6.438;2022-12-10T06:54:30;81.78;;;43.03;;
55003;SDS011;40900;52.710;6.438;2022-12-10T06:56:56;82.72;;;42.47;;
55003;SDS011;40900;52.710;6.438;2022-12-10T06:59:22;85.60;;;43.17;;
55003;SDS011;40900;52.710;6.438;2022-12-10T07:01:48;91.13;;;43.08;;
55003;SDS011;40900;52.710;6.438;2022-12-10T07:04:13;80.22;;;41.65;;
55003;SDS011;40900;52.710;6.438;2022-12-10T07:06:39;77.28;;;40.97;;
55003;SDS011;40900;52.710;6.438;2022-12-10T07:09:06;79.05;;;39.88;;
55003;SDS011;40900;52.710;6.438;2022-12-10T07:11:31;85.43;;;41.53;;
55003;SDS011;40900;52.710;6.438;2022-12-10T07:13:58;84.80;;;41.67;;
55003;SDS011;40900;52.710;6.438;2022-12-10T07:16:28;81.10;;;40.88;;
55003;SDS011;40900;52.710;6.438;2022-12-10T07:18:55;83.68;;;41.80;;
55003;SDS011;40900;52.710;6.438;2022-12-10T07:21:24;87.32;;;43.30;;
55003;SDS011;40900;52.710;6.438;2022-12-10T07:23:54;83.82;;;42.55;;
55003;SDS011;40900;52.710;6.438;2022-12-10T07:26:29;87.20;;;41.95;;
55003;SDS011;40900;52.710;6.438;2022-12-10T07:29:00;82.55;;;41.60;;
55003;SDS011;40900;52.710;6.438;2022-12-10T07:31:26;85.85;;;41.55;;
55003;SDS011;40900;52.710;6.438;2022-12-10T07:33:53;86.07;;;43.92;;
55003;SDS011;40900;52.710;6.438;2022-12-10T07:36:20;85.38;;;43.25;;
55003;SDS011;40900;52.710;6.438;2022-12-10T07:38:47;87.78;;;43.35;;
55003;SDS011;40900;52.710;6.438;2022-12-10T07:41:13;83.65;;;41.95;;
55003;SDS011;40900;52.710;6.438;2022-12-10T07:43:40;86.22;;;43.38;;
55003;SDS011;40900;52.710;6.438;2022-12-10T07:46:11;83.47;;;42.90;;
55003;SDS011;40900;52.710;6.438;2022-12-10T07:48:38;88.88;;;45.20;;
55003;SDS011;40900;52.710;6.438;2022-12-10T07:51:05;82.13;;;40.30;;
55003;SDS011;40900;52.710;6.438;2022-12-10T07:53:31;85.35;;;42.78;;
55003;SDS011;40900;52.710;6.438;2022-12-10T07:55:57;84.38;;;43.00;;
55003;SDS011;40900;52.710;6.438;2022-12-10T07:58:23;87.80;;;43.53;;
55003;SDS011;40900;52.710;6.438;2022-12-10T08:00:48;87.75;;;42.88;;
55003;SDS011;40900;52.710;6.438;2022-12-10T08:03:14;83.07;;;42.53;;
55003;SDS011;40900;52.710;6.438;2022-12-10T08:05:40;86.13;;;43.35;;
55003;SDS011;40900;52.710;6.438;2022-12-10T08:08:06;82.80;;;42.45;;
55003;SDS011;40900;52.710;6.438;2022-12-10T08:10:38;87.90;;;43.30;;
55003;SDS011;40900;52.710;6.438;2022-12-10T08:13:04;94.07;;;44.35;;
55003;SDS011;40900;52.710;6.438;2022-12-10T08:15:31;87.03;;;44.80;;
55003;SDS011;40900;52.710;6.438;2022-12-10T08:17:58;89.53;;;45.13;;
55003;SDS011;40900;52.710;6.438;2022-12-10T08:20:24;95.05;;;46.85;;
55003;SDS011;40900;52.710;6.438;2022-12-10T08:22:50;92.53;;;44.90;;
55003;SDS011;40900;52.710;6.438;2022-12-10T08:25:16;101.40;;;47.25;;
55003;SDS011;40900;52.710;6.438;2022-12-10T08:27:42;99.90;;;47.15;;
55003;SDS011;40900;52.710;6.438;2022-12-10T08:30:08;96.15;;;46.40;;
55003;SDS011;40900;52.710;6.438;2022-12-10T08:32:34;103.85;;;47.67;;
55003;SDS011;40900;52.710;6.438;2022-12-10T08:34:59;100.75;;;48.58;;
55003;SDS011;40900;52.710;6.438;2022-12-10T08:37:25;97.63;;;45.65;;
55003;SDS011;40900;52.710;6.438;2022-12-10T08:39:51;91.45;;;45.22;;
55003;SDS011;40900;52.710;6.438;2022-12-10T08:42:17;94.78;;;46.45;;
55003;SDS011;40900;52.710;6.438;2022-12-10T08:44:43;102.72;;;48.08;;
55003;SDS011;40900;52.710;6.438;2022-12-10T08:47:08;93.60;;;45.17;;
55003;SDS011;40900;52.710;6.438;2022-12-10T08:49:34;94.93;;;46.78;;
55003;SDS011;40900;52.710;6.438;2022-12-10T08:52:00;95.05;;;45.88;;
55003;SDS011;40900;52.710;6.438;2022-12-10T08:54:25;90.78;;;44.08;;
55003;SDS011;40900;52.710;6.438;2022-12-10T08:56:51;86.88;;;43.78;;
55003;SDS011;40900;52.710;6.438;2022-12-10T08:59:17;101.78;;;46.22;;
55003;SDS011;40900;52.710;6.438;2022-12-10T09:01:43;94.72;;;46.13;;
55003;SDS011;40900;52.710;6.438;2022-12-10T09:04:08;96.90;;;45.75;;
55003;SDS011;40900;52.710;6.438;2022-12-10T09:06:34;90.28;;;44.00;;
55003;SDS011;40900;52.710;6.438;2022-12-10T09:09:00;95.32;;;46.20;;
55003;SDS011;40900;52.710;6.438;2022-12-10T09:11:28;103.63;;;47.88;;
55003;SDS011;40900;52.710;6.438;2022-12-10T09:13:56;105.75;;;47.38;;
55003;SDS011;40900;52.710;6.438;2022-12-10T09:16:55;99.65;;;47.45;;
55003;SDS011;40900;52.710;6.438;2022-12-10T09:19:14;103.30;;;49.50;;
55003;SDS011;40900;52.710;6.438;2022-12-10T09:21:40;109.50;;;48.33;;
55003;SDS011;40900;52.710;6.438;2022-12-10T09:24:06;106.82;;;49.25;;
55003;SDS011;40900;52.710;6.438;2022-12-10T09:26:33;111.10;;;48.70;;
55003;SDS011;40900;52.710;6.438;2022-12-10T09:28:58;116.75;;;49.75;;
55003;SDS011;40900;52.710;6.438;2022-12-10T09:31:25;114.90;;;49.70;;
55003;SDS011;40900;52.710;6.438;2022-12-10T09:33:51;118.82;;;52.08;;
55003;SDS011;40900;52.710;6.438;2022-12-10T09:36:18;124.75;;;50.65;;
55003;SDS011;40900;52.710;6.438;2022-12-10T09:38:45;120.90;;;49.22;;
55003;SDS011;40900;52.710;6.438;2022-12-10T09:46:51;114.38;;;48.47;;
55003;SDS011;40900;52.710;6.438;2022-12-10T09:52:04;123.47;;;51.40;;
55003;SDS011;40900;52.710;6.438;2022-12-10T09:54:36;125.03;;;51.92;;
55003;SDS011;40900;52.710;6.438;2022-12-10T09:57:20;134.47;;;52.50;;
55003;SDS011;40900;52.710;6.438;2022-12-10T10:00:12;125.30;;;50.55;;
55003;SDS011;40900;52.710;6.438;2022-12-10T10:02:52;129.73;;;51.38;;
55003;SDS011;40900;52.710;6.438;2022-12-10T10:05:23;135.30;;;54.75;;
55003;SDS011;40900;52.710;6.438;2022-12-10T10:07:55;122.22;;;48.30;;
55003;SDS011;40900;52.710;6.438;2022-12-10T10:10:35;122.38;;;50.22;;
55003;SDS011;40900;52.710;6.438;2022-12-10T10:15:32;109.78;;;45.78;;
55003;SDS011;40900;52.710;6.438;2022-12-10T10:18:13;109.90;;;46.92;;
55003;SDS011;40900;52.710;6.438;2022-12-10T10:20:40;122.63;;;48.35;;
55003;SDS011;40900;52.710;6.438;2022-12-10T10:23:06;111.28;;;43.90;;
55003;SDS011;40900;52.710;6.438;2022-12-10T10:25:33;103.57;;;43.33;;
55003;SDS011;40900;52.710;6.438;2022-12-10T10:27:58;110.47;;;45.50;;
55003;SDS011;40900;52.710;6.438;2022-12-10T10:30:24;110.43;;;45.28;;
55003;SDS011;40900;52.710;6.438;2022-12-10T10:32:54;124.00;;;47.17;;
55003;SDS011;40900;52.710;6.438;2022-12-10T10:38:04;114.30;;;44.58;;
55003;SDS011;40900;52.710;6.438;2022-12-10T10:40:33;115.15;;;45.20;;
55003;SDS011;40900;52.710;6.438;2022-12-10T10:43:05;110.03;;;44.17;;
55003;SDS011;40900;52.710;6.438;2022-12-10T10:45:39;126.97;;;46.78;;
55003;SDS011;40900;52.710;6.438;2022-12-10T10:48:14;129.37;;;49.83;;
55003;SDS011;40900;52.710;6.438;2022-12-10T10:53:23;142.98;;;52.88;;
55003;SDS011;40900;52.710;6.438;2022-12-10T10:55:53;163.05;;;59.00;;
55003;SDS011;40900;52.710;6.438;2022-12-10T10:58:22;162.93;;;56.55;;
55003;SDS011;40900;52.710;6.438;2022-12-10T11:00:53;160.35;;;54.78;;
55003;SDS011;40900;52.710;6.438;2022-12-10T11:03:24;166.82;;;58.42;;
55003;SDS011;40900;52.710;6.438;2022-12-10T11:05:52;174.40;;;55.40;;
55003;SDS011;40900;52.710;6.438;2022-12-10T11:08:19;172.48;;;57.63;;
55003;SDS011;40900;52.710;6.438;2022-12-10T11:10:49;169.05;;;58.58;;
55003;SDS011;40900;52.710;6.438;2022-12-10T11:13:23;171.27;;;57.65;;
55003;SDS011;40900;52.710;6.438;2022-12-10T11:16:32;175.95;;;57.88;;
55003;SDS011;40900;52.710;6.438;2022-12-10T11:18:56;179.77;;;60.60;;
55003;SDS011;40900;52.710;6.438;2022-12-10T11:21:27;165.63;;;54.28;;
55003;SDS011;40900;52.710;6.438;2022-12-10T11:23:55;148.82;;;56.97;;
55003;SDS011;40900;52.710;6.438;2022-12-10T11:31:51;154.57;;;53.20;;
55003;SDS011;40900;52.710;6.438;2022-12-10T11:37:38;157.05;;;54.63;;
55003;SDS011;40900;52.710;6.438;2022-12-10T11:40:41;158.00;;;54.08;;
55003;SDS011;40900;52.710;6.438;2022-12-10T11:51:11;169.90;;;58.33;;
55003;SDS011;40900;52.710;6.438;2022-12-10T11:59:28;152.88;;;53.85;;
55003;SDS011;40900;52.710;6.438;2022-12-10T12:02:15;166.43;;;56.22;;
55003;SDS011;40900;52.710;6.438;2022-12-10T12:16:51;150.52;;;55.05;;
55003;SDS011;40900;52.710;6.438;2022-12-10T12:19:36;163.30;;;56.78;;
55003;SDS011;40900;52.710;6.438;2022-12-10T12:22:07;157.85;;;56.13;;
55003;SDS011;40900;52.710;6.438;2022-12-10T12:24:40;148.30;;;54.03;;
55003;SDS011;40900;52.710;6.438;2022-12-10T12:29:57;143.60;;;52.67;;
55003;SDS011;40900;52.710;6.438;2022-12-10T12:34:59;137.15;;;50.38;;
55003;SDS011;40900;52.710;6.438;2022-12-10T12:37:45;150.52;;;53.25;;
55003;SDS011;40900;52.710;6.438;2022-12-10T12:45:45;138.10;;;51.50;;
55003;SDS011;40900;52.710;6.438;2022-12-10T12:48:34;137.77;;;52.20;;
55003;SDS011;40900;52.710;6.438;2022-12-10T12:51:08;132.23;;;50.50;;
55003;SDS011;40900;52.710;6.438;2022-12-10T12:53:37;133.63;;;52.13;;
55003;SDS011;40900;52.710;6.438;2022-12-10T13:04:59;143.45;;;55.00;;
55003;SDS011;40900;52.710;6.438;2022-12-10T13:10:07;128.20;;;53.90;;
55003;SDS011;40900;52.710;6.438;2022-12-10T13:15:21;140.52;;;53.00;;
55003;SDS011;40900;52.710;6.438;2022-12-10T13:20:40;138.98;;;52.30;;
55003;SDS011;40900;52.710;6.438;2022-12-10T13:25:55;133.25;;;52.90;;
55003;SDS011;40900;52.710;6.438;2022-12-10T13:39:19;129.15;;;48.05;;
55003;SDS011;40900;52.710;6.438;2022-12-10T13:50:01;117.57;;;48.20;;
55003;SDS011;40900;52.710;6.438;2022-12-10T14:00:41;117.63;;;47.05;;
55003;SDS011;40900;52.710;6.438;2022-12-10T14:08:53;121.00;;;46.13;;
55003;SDS011;40900;52.710;6.438;2022-12-10T14:11:38;116.68;;;44.60;;
55003;SDS011;40900;52.710;6.438;2022-12-10T14:14:11;114.22;;;44.88;;
55003;SDS011;40900;52.710;6.438;2022-12-10T14:16:50;126.93;;;46.65;;
55003;SDS011;40900;52.710;6.438;2022-12-10T14:19:16;130.50;;;49.78;;
55003;SDS011;40900;52.710;6.438;2022-12-10T14:21:43;122.80;;;45.97;;
55003;SDS011;40900;52.710;6.438;2022-12-10T14:24:27;116.47;;;45.78;;
55003;SDS011;40900;52.710;6.438;2022-12-10T14:27:17;108.60;;;44.88;;
55003;SDS011;40900;52.710;6.438;2022-12-10T14:29:51;114.93;;;44.63;;
55003;SDS011;40900;52.710;6.438;2022-12-10T14:32:33;118.90;;;44.85;;
55003;SDS011;40900;52.710;6.438;2022-12-10T14:35:01;119.57;;;45.22;;
55003;SDS011;40900;52.710;6.438;2022-12-10T14:37:31;120.88;;;45.53;;
55003;SDS011;40900;52.710;6.438;2022-12-10T14:40:00;123.70;;;46.70;;
55003;SDS011;40900;52.710;6.438;2022-12-10T14:42:26;121.70;;;47.17;;
55003;SDS011;40900;52.710;6.438;2022-12-10T14:44:57;120.60;;;46.08;;
55003;SDS011;40900;52.710;6.438;2022-12-10T14:47:25;120.07;;;46.55;;
55003;SDS011;40900;52.710;6.438;2022-12-10T14:49:52;119.10;;;44.25;;
55003;SDS011;40900;52.710;6.438;2022-12-10T14:52:24;118.18;;;43.83;;
55003;SDS011;40900;52.710;6.438;2022-12-10T14:54:56;111.80;;;43.53;;
55003;SDS011;40900;52.710;6.438;2022-12-10T14:57:26;111.60;;;41.40;;
55003;SDS011;40900;52.710;6.438;2022-12-10T15:00:06;117.25;;;44.78;;
55003;SDS011;40900;52.710;6.438;2022-12-10T15:02:59;122.63;;;44.13;;
55003;SDS011;40900;52.710;6.438;2022-12-10T15:05:27;122.13;;;42.53;;
55003;SDS011;40900;52.710;6.438;2022-12-10T15:08:00;106.72;;;40.30;;
55003;SDS011;40900;52.710;6.438;2022-12-10T15:10:44;102.65;;;40.25;;
55003;SDS011;40900;52.710;6.438;2022-12-10T15:13:19;101.77;;;39.43;;
55003;SDS011;40900;52.710;6.438;2022-12-10T15:15:49;96.57;;;39.05;;
55003;SDS011;40900;52.710;6.438;2022-12-10T15:18:18;106.60;;;40.33;;
55003;SDS011;40900;52.710;6.438;2022-12-10T15:20:47;117.10;;;43.05;;
55003;SDS011;40900;52.710;6.438;2022-12-10T15:23:20;111.82;;;41.38;;
55003;SDS011;40900;52.710;6.438;2022-12-10T15:28:29;108.95;;;38.88;;
55003;SDS011;40900;52.710;6.438;2022-12-10T15:31:09;108.03;;;38.97;;
55003;SDS011;40900;52.710;6.438;2022-12-10T15:33:54;105.43;;;39.35;;
55003;SDS011;40900;52.710;6.438;2022-12-10T15:39:37;99.28;;;39.10;;
55003;SDS011;40900;52.710;6.438;2022-12-10T15:45:22;111.82;;;40.85;;
55003;SDS011;40900;52.710;6.438;2022-12-10T15:47:58;118.55;;;41.80;;
55003;SDS011;40900;52.710;6.438;2022-12-10T15:50:25;114.07;;;41.05;;
55003;SDS011;40900;52.710;6.438;2022-12-10T15:52:51;120.97;;;43.95;;
55003;SDS011;40900;52.710;6.438;2022-12-10T15:55:18;118.72;;;41.65;;
55003;SDS011;40900;52.710;6.438;2022-12-10T15:57:44;121.40;;;43.35;;
55003;SDS011;40900;52.710;6.438;2022-12-10T16:00:20;129.07;;;42.78;;
55003;SDS011;40900;52.710;6.438;2022-12-10T16:02:57;115.50;;;40.58;;
55003;SDS011;40900;52.710;6.438;2022-12-10T16:05:29;106.30;;;39.03;;
55003;SDS011;40900;52.710;6.438;2022-12-10T16:10:51;105.97;;;38.42;;
55003;SDS011;40900;52.710;6.438;2022-12-10T16:13:26;107.07;;;37.50;;
55003;SDS011;40900;52.710;6.438;2022-12-10T16:15:56;107.97;;;38.80;;
55003;SDS011;40900;52.710;6.438;2022-12-10T16:18:33;119.72;;;40.33;;
55003;SDS011;40900;52.710;6.438;2022-12-10T16:21:01;114.65;;;40.42;;
55003;SDS011;40900;52.710;6.438;2022-12-10T16:23:27;128.50;;;40.35;;
55003;SDS011;40900;52.710;6.438;2022-12-10T16:25:53;118.03;;;39.85;;
55003;SDS011;40900;52.710;6.438;2022-12-10T16:28:20;126.93;;;40.38;;
55003;SDS011;40900;52.710;6.438;2022-12-10T16:30:50;117.72;;;39.15;;
55003;SDS011;40900;52.710;6.438;2022-12-10T16:33:18;149.82;;;44.15;;
55003;SDS011;40900;52.710;6.438;2022-12-10T16:35:46;127.95;;;41.05;;
55003;SDS011;40900;52.710;6.438;2022-12-10T16:38:13;129.25;;;40.72;;
55003;SDS011;40900;52.710;6.438;2022-12-10T16:40:39;135.38;;;43.15;;
55003;SDS011;40900;52.710;6.438;2022-12-10T16:43:08;143.90;;;41.25;;
55003;SDS011;40900;52.710;6.438;2022-12-10T16:50:33;122.25;;;39.70;;
55003;SDS011;40900;52.710;6.438;2022-12-10T16:53:01;165.65;;;43.35;;
55003;SDS011;40900;52.710;6.438;2022-12-10T16:55:38;133.80;;;41.88;;
55003;SDS011;40900;52.710;6.438;2022-12-10T16:58:04;139.60;;;39.00;;
55003;SDS011;40900;52.710;6.438;2022-12-10T17:00:34;129.98;;;39.20;;
55003;SDS011;40900;52.710;6.438;2022-12-10T17:03:00;215.10;;;40.40;;